Time;durP1;ratioP1;P1;durP2;ratioP2;P2;SDS_P1;SDS_P2;PMS_P1;PMS_P2;Temp;Humidity;BMP_temperature;BMP_pressure;BME280_temperature;BME280_humidity;BME280_pressure;Samples;Min_cycle;Max_cycle;Signal;HPM_P1;HPM_P2
2023/12/05 00:02:28;;;;;;;94.80;37.10;;;;;;;-4.68;73.53;100395.25;131278;1265;199590;-81
2023/12/05 00:05:34;;;;;;;64.20;27.80;;;;;;;-4.58;73.58;100389.49;131417;1253;107935;-81
2023/12/05 00:08:40;;;;;;;92.30;33.60;;;;;;;-4.48;73.72;100390.38;131365;1254;107242;-80
2023/12/05 00:11:45;;;;;;;84.70;34.60;;;;;;;-4.40;73.50;100392.00;131398;1253;105592;-81
2023/12/05 00:14:51;;;;;;;100.20;41.00;;;;;;;-4.32;73.57;100393.98;131383;1250;107682;-82
2023/12/05 00:17:57;;;;;;;71.40;31.60;;;;;;;-4.27;73.48;100388.08;131438;1253;106662;-81
2023/12/05 00:21:02;;;;;;;68.00;28.60;;;;;;;-4.22;73.39;100378.52;131332;1250;106764;-82
2023/12/05 00:24:09;;;;;;;64.00;29.40;;;;;;;-4.17;73.39;100377.45;131411;1256;105985;-82
2023/12/05 00:27:14;;;;;;;76.10;34.80;;;;;;;-4.17;73.17;100373.61;131368;1253;108471;-81
2023/12/05 00:30:20;;;;;;;63.50;30.00;;;;;;;-4.21;73.43;100378.13;131367;1250;106314;-81
2023/12/05 00:33:26;;;;;;;60.60;28.30;;;;;;;-4.23;73.70;100369.14;131382;1249;107523;-81
2023/12/05 00:36:31;;;;;;;61.20;28.00;;;;;;;-4.22;73.64;100362.89;131233;1250;107093;-81
2023/12/05 00:39:37;;;;;;;59.00;27.20;;;;;;;-4.24;73.71;100360.33;131391;1253;107441;-81
2023/12/05 00:42:43;;;;;;;64.40;28.60;;;;;;;-4.25;73.69;100360.91;131213;1251;107613;-79
2023/12/05 00:45:48;;;;;;;61.10;26.80;;;;;;;-4.25;73.79;100363.14;131187;1256;107668;-82
2023/12/05 00:48:54;;;;;;;65.80;29.00;;;;;;;-4.26;73.95;100364.73;131336;1253;106452;-80
2023/12/05 00:51:59;;;;;;;65.10;28.20;;;;;;;-4.27;73.79;100362.70;131348;1257;107753;-82
2023/12/05 00:55:06;;;;;;;63.50;28.20;;;;;;;-4.26;73.91;100360.95;131337;1249;108637;-81
2023/12/05 00:58:11;;;;;;;60.00;28.60;;;;;;;-4.24;74.07;100357.58;131471;1251;107599;-82
2023/12/05 01:01:18;;;;;;;59.60;27.60;;;;;;;-4.25;73.93;100357.95;131414;1253;107468;-81
2023/12/05 01:04:24;;;;;;;64.20;29.40;;;;;;;-4.29;73.95;100352.88;131331;1251;106459;-81
2023/12/05 01:07:30;;;;;;;60.90;28.70;;;;;;;-4.31;73.85;100346.37;131376;1250;108444;-82
2023/12/05 01:10:36;;;;;;;65.70;28.70;;;;;;;-4.32;73.98;100344.85;131470;1250;107536;-82
2023/12/05 01:13:43;;;;;;;67.80;29.30;;;;;;;-4.33;74.15;100340.54;131426;1254;108508;-82
2023/12/05 01:16:48;;;;;;;65.60;30.70;;;;;;;-4.36;74.34;100340.64;131477;1254;108715;-82
2023/12/05 01:19:54;;;;;;;62.40;28.80;;;;;;;-4.37;74.21;100336.65;131488;1253;106655;-82
2023/12/05 01:22:59;;;;;;;60.90;28.40;;;;;;;-4.37;74.17;100333.73;131371;1250;108616;-82
2023/12/05 01:26:06;;;;;;;57.10;27.20;;;;;;;-4.40;74.41;100327.75;131342;1250;108689;-81
2023/12/05 01:29:11;;;;;;;56.00;26.40;;;;;;;-4.36;74.43;100324.13;131220;1253;107758;-81
2023/12/05 01:32:17;;;;;;;71.00;29.60;;;;;;;-4.25;74.64;100324.78;131401;1253;108398;-82
2023/12/05 01:35:23;;;;;;;64.20;27.70;;;;;;;-4.19;74.31;100328.87;131386;1253;107184;-81
2023/12/05 01:38:29;;;;;;;66.00;28.50;;;;;;;-4.11;74.40;100328.42;131470;1256;109005;-81
2023/12/05 01:41:34;;;;;;;65.50;29.30;;;;;;;-4.02;74.33;100333.10;131444;1253;105796;-81
2023/12/05 01:44:40;;;;;;;67.80;29.80;;;;;;;-3.94;74.30;100335.58;131423;1253;107429;-82
2023/12/05 01:47:46;;;;;;;67.20;28.60;;;;;;;-3.88;74.51;100328.77;131514;1249;106328;-81
2023/12/05 01:50:53;;;;;;;65.00;30.60;;;;;;;-3.83;74.24;100323.19;131466;1253;108098;-82
2023/12/05 01:53:59;;;;;;;66.30;29.80;;;;;;;-3.82;74.32;100317.23;131401;1251;108442;-82
2023/12/05 01:57:07;;;;;;;62.90;28.20;;;;;;;-3.82;74.31;100318.08;131450;1253;107709;-81
2023/12/05 02:00:14;;;;;;;67.00;30.70;;;;;;;-3.82;74.15;100306.25;131584;1253;107684;-81
2023/12/05 02:03:20;;;;;;;66.90;29.70;;;;;;;-3.83;74.47;100310.15;131401;1251;107601;-82
2023/12/05 02:06:26;;;;;;;70.40;30.50;;;;;;;-3.87;74.52;100313.59;131435;1251;107639;-82
2023/12/05 02:09:33;;;;;;;66.00;30.40;;;;;;;-3.87;74.38;100313.61;131282;1254;107080;-82
2023/12/05 02:12:40;;;;;;;68.70;30.20;;;;;;;-3.91;74.13;100317.04;131376;1253;107318;-81
2023/12/05 02:15:48;;;;;;;73.10;31.90;;;;;;;-3.97;74.46;100311.19;131317;1253;106060;-81
2023/12/05 02:19:01;;;;;;;72.00;31.30;;;;;;;-4.00;74.57;100316.84;131319;1253;107181;-82
2023/12/05 02:22:13;;;;;;;63.20;30.00;;;;;;;-4.03;74.73;100318.90;131410;1253;107628;-82
2023/12/05 02:25:40;;;;;;;70.10;32.50;;;;;;;-4.05;74.51;100316.20;131386;1253;107521;-81
2023/12/05 02:28:45;;;;;;;69.40;30.10;;;;;;;-4.11;74.58;100314.50;131375;1251;107757;-82
2023/12/05 02:31:51;;;;;;;71.80;30.80;;;;;;;-4.14;74.61;100312.70;131381;1253;106557;-81
2023/12/05 02:34:56;;;;;;;71.00;31.70;;;;;;;-4.14;74.77;100307.67;131319;1254;108798;-81
2023/12/05 02:38:08;;;;;;;69.80;32.70;;;;;;;-4.18;74.68;100308.88;131346;1256;106788;-81
2023/12/05 02:41:18;;;;;;;;;;;;;;;-4.21;74.81;100314.55;131371;1256;108683;-82
2023/12/05 02:44:27;;;;;;;68.70;30.00;;;;;;;-4.25;74.77;100314.36;131322;1257;107476;-82
2023/12/05 02:47:35;;;;;;;65.70;28.90;;;;;;;-4.27;74.75;100315.48;131405;1256;106649;-81
2023/12/05 02:50:40;;;;;;;62.80;27.80;;;;;;;-4.22;74.70;100309.03;131248;1251;107765;-82
2023/12/05 02:53:46;;;;;;;67.40;29.60;;;;;;;-4.11;74.79;100305.82;131162;1264;108501;-81
2023/12/05 02:56:51;;;;;;;62.30;28.10;;;;;;;-4.03;74.67;100297.52;131372;1254;107756;-81
2023/12/05 02:59:57;;;;;;;67.30;30.10;;;;;;;-3.94;74.76;100295.44;131538;1253;108527;-82
2023/12/05 03:03:03;;;;;;;64.30;27.50;;;;;;;-3.90;74.50;100289.39;131397;1253;106462;-82
2023/12/05 03:06:09;;;;;;;61.30;28.20;;;;;;;-3.91;74.56;100294.14;131429;1256;108608;-82
2023/12/05 03:09:15;;;;;;;67.70;28.50;;;;;;;-3.90;74.80;100290.62;131356;1253;106519;-80
2023/12/05 03:12:20;;;;;;;64.80;28.90;;;;;;;-3.91;74.37;100288.90;131205;1263;107065;-81
2023/12/05 03:15:26;;;;;;;64.90;27.90;;;;;;;-3.93;74.37;100282.54;131379;1253;107689;-82
2023/12/05 03:18:32;;;;;;;65.60;28.80;;;;;;;-4.00;74.39;100276.36;131358;1253;108959;-81
2023/12/05 03:21:37;;;;;;;60.80;26.80;;;;;;;-4.08;74.41;100273.92;131379;1256;107657;-82
2023/12/05 03:24:43;;;;;;;64.70;27.70;;;;;;;-4.20;74.51;100272.98;131347;1256;107445;-82
2023/12/05 03:27:48;;;;;;;61.60;27.30;;;;;;;-4.26;74.42;100273.04;131312;1258;107725;-81
2023/12/05 03:30:54;;;;;;;59.80;26.20;;;;;;;-4.29;74.46;100268.13;131436;1251;106353;-81
2023/12/05 03:33:59;;;;;;;77.00;31.50;;;;;;;-4.31;74.51;100268.04;131691;1255;107201;-81
2023/12/05 03:37:05;;;;;;;87.00;38.90;;;;;;;-4.35;74.51;100262.96;131367;1251;106013;-81
2023/12/05 03:40:12;;;;;;;69.10;32.70;;;;;;;-4.41;74.40;100261.99;131377;1256;106422;-82
2023/12/05 03:43:17;;;;;;;63.40;30.20;;;;;;;-4.46;74.59;100256.98;131303;1254;107589;-77
2023/12/05 03:46:23;;;;;;;62.90;27.90;;;;;;;-4.50;74.77;100256.41;131115;1256;107092;-79
2023/12/05 03:49:28;;;;;;;64.80;28.00;;;;;;;-4.52;74.73;100252.33;131067;1254;106801;-79
2023/12/05 03:52:34;;;;;;;71.30;29.90;;;;;;;-4.51;74.80;100254.71;131626;1254;108365;-82
2023/12/05 03:55:40;;;;;;;115.40;39.60;;;;;;;-4.50;74.89;100257.64;131415;1256;107515;-83
2023/12/05 03:58:46;;;;;;;124.20;44.40;;;;;;;-4.57;74.62;100246.64;131323;1259;107686;-82
2023/12/05 04:01:51;;;;;;;91.70;34.00;;;;;;;-4.54;74.72;100266.98;131370;1255;106319;-82
2023/12/05 04:04:57;;;;;;;108.20;33.30;;;;;;;-4.55;74.85;100267.89;131296;1255;108640;-80
2023/12/05 04:08:02;;;;;;;92.00;30.80;;;;;;;-4.56;75.12;100268.27;131296;1254;107652;-81
2023/12/05 04:11:08;;;;;;;133.50;49.90;;;;;;;-4.52;74.96;100271.95;131220;1263;108627;-80
2023/12/05 04:14:14;;;;;;;75.10;29.00;;;;;;;-4.46;75.10;100273.44;131253;1254;108641;-81
2023/12/05 04:17:20;;;;;;;49.80;23.60;;;;;;;-4.36;75.07;100272.02;131412;1256;108428;-82
2023/12/05 04:20:25;;;;;;;121.90;39.20;;;;;;;-4.28;74.71;100265.16;131410;1251;106037;-82
2023/12/05 04:23:31;;;;;;;104.00;35.10;;;;;;;-4.24;74.75;100265.17;131638;1251;106575;-79
2023/12/05 04:26:36;;;;;;;72.80;29.40;;;;;;;-4.23;74.77;100263.70;131327;1254;106205;-82
2023/12/05 04:29:43;;;;;;;80.20;29.70;;;;;;;-4.23;74.74;100262.54;131261;1256;108371;-84
2023/12/05 04:32:48;;;;;;;56.60;25.20;;;;;;;-4.23;74.63;100259.94;131356;1250;107274;-83
2023/12/05 04:35:54;;;;;;;77.40;34.30;;;;;;;-4.25;74.63;100261.88;131327;1251;108637;-81
2023/12/05 04:39:00;;;;;;;89.30;35.10;;;;;;;-4.33;74.49;100267.21;131272;1254;108619;-81
2023/12/05 04:42:07;;;;;;;100.30;36.80;;;;;;;-4.42;74.63;100268.79;131278;1254;106614;-79
2023/12/05 04:45:12;;;;;;;89.20;35.90;;;;;;;-4.49;74.67;100266.63;131281;1254;108548;-81
2023/12/05 04:48:18;;;;;;;86.70;34.00;;;;;;;-4.50;74.80;100265.12;131346;1263;106089;-80
2023/12/05 04:51:24;;;;;;;62.80;27.40;;;;;;;-4.52;74.57;100259.95;131340;1253;106416;-81
2023/12/05 04:54:29;;;;;;;66.40;28.90;;;;;;;-4.54;74.89;100263.16;131319;1251;107290;-82
2023/12/05 04:57:35;;;;;;;64.30;28.80;;;;;;;-4.56;74.69;100262.36;131188;1251;107541;-81
2023/12/05 05:00:40;;;;;;;60.90;27.80;;;;;;;-4.59;74.60;100263.68;131174;1260;105411;-81
2023/12/05 05:03:46;;;;;;;55.50;26.00;;;;;;;-4.64;74.74;100260.93;131298;1259;108118;-83
2023/12/05 05:06:52;;;;;;;55.70;25.80;;;;;;;-4.69;74.68;100262.35;131298;1253;106932;-82
2023/12/05 05:09:58;;;;;;;70.10;29.40;;;;;;;-4.77;74.70;100265.76;131329;1256;107133;-82
2023/12/05 05:13:03;;;;;;;61.90;27.80;;;;;;;-4.83;74.73;100271.16;131304;1254;108621;-80
2023/12/05 05:16:11;;;;;;;59.10;27.10;;;;;;;-4.88;74.82;100272.71;131415;1250;107326;-82
2023/12/05 05:19:18;;;;;;;66.10;27.90;;;;;;;-4.89;74.78;100272.78;131360;1255;108694;-81
2023/12/05 05:22:24;;;;;;;61.80;26.10;;;;;;;-4.92;74.98;100272.20;131262;1251;107072;-81
2023/12/05 05:25:30;;;;;;;52.20;24.70;;;;;;;-4.95;74.78;100270.70;131314;1263;106109;-80
2023/12/05 05:28:35;;;;;;;60.80;27.00;;;;;;;-4.94;74.96;100268.95;131353;1254;108744;-82
2023/12/05 05:31:41;;;;;;;66.80;29.80;;;;;;;-4.88;74.82;100267.53;131348;1253;106011;-81
2023/12/05 05:34:46;;;;;;;71.60;30.10;;;;;;;-4.82;74.91;100266.11;131307;1256;108457;-80
2023/12/05 05:37:52;;;;;;;71.10;30.20;;;;;;;-4.75;74.69;100261.34;131333;1254;108164;-81
2023/12/05 05:41:06;;;;;;;77.70;31.70;;;;;;;-4.66;74.73;100255.64;131420;1255;106560;-80
2023/12/05 05:44:11;;;;;;;71.50;30.40;;;;;;;-4.60;74.71;100253.50;131292;1255;106371;-83
2023/12/05 05:47:17;;;;;;;60.00;26.40;;;;;;;-4.57;74.50;100249.36;131337;1254;106528;-82
2023/12/05 05:50:22;;;;;;;74.80;31.00;;;;;;;-4.58;74.41;100247.48;131352;1253;107639;-80
2023/12/05 05:53:28;;;;;;;67.90;29.10;;;;;;;-4.60;74.66;100243.23;131420;1254;107364;-81
2023/12/05 05:56:40;;;;;;;59.40;26.90;;;;;;;-4.63;74.34;100245.27;131321;1251;107922;-81
2023/12/05 05:59:45;;;;;;;61.40;26.90;;;;;;;-4.70;74.33;100246.41;131379;1254;108369;-80
2023/12/05 06:02:51;;;;;;;80.60;30.70;;;;;;;-4.77;74.33;100245.92;131486;1253;106916;-81
2023/12/05 06:05:59;;;;;;;79.20;32.60;;;;;;;-4.81;74.36;100245.05;131370;1251;107625;-80
2023/12/05 06:09:05;;;;;;;78.10;30.40;;;;;;;-4.84;74.33;100240.66;131435;1254;106231;-80
2023/12/05 06:12:12;;;;;;;73.60;32.60;;;;;;;-4.89;74.31;100248.14;131520;1253;106894;-80
2023/12/05 06:15:17;;;;;;;61.00;27.30;;;;;;;-4.95;74.36;100249.38;131442;1253;107977;-81
2023/12/05 06:18:23;;;;;;;61.70;27.20;;;;;;;-5.00;74.16;100243.65;131412;1254;107729;-82
2023/12/05 06:21:29;;;;;;;62.70;26.70;;;;;;;-5.04;74.21;100248.13;131375;1254;106493;-80
2023/12/05 06:24:34;;;;;;;52.60;24.70;;;;;;;-5.10;74.09;100247.66;131116;1254;108658;-81
2023/12/05 06:27:41;;;;;;;55.20;26.20;;;;;;;-5.15;74.31;100246.63;131254;1251;107540;-80
2023/12/05 06:30:47;;;;;;;57.20;25.20;;;;;;;-5.17;74.37;100240.79;131304;1254;106229;-81
2023/12/05 06:33:52;;;;;;;60.50;26.90;;;;;;;-5.20;74.32;100241.59;131594;1254;108191;-82
2023/12/05 06:36:58;;;;;;;80.80;29.80;;;;;;;-5.23;74.21;100235.98;131358;1254;107131;-79
2023/12/05 06:40:04;;;;;;;86.00;32.60;;;;;;;-5.28;74.36;100233.73;131078;1251;106373;-78
2023/12/05 06:43:09;;;;;;;96.60;35.20;;;;;;;-5.30;74.31;100234.66;131155;1251;108288;-78
2023/12/05 06:46:15;;;;;;;89.80;33.80;;;;;;;-5.32;74.35;100236.26;131215;1250;108034;-86
2023/12/05 06:49:22;;;;;;;77.90;28.80;;;;;;;-5.36;74.30;100236.08;132120;1251;107583;-87
2023/12/05 06:52:28;;;;;;;65.00;25.40;;;;;;;-5.38;74.34;100236.67;132058;1254;106309;-87
2023/12/05 06:55:33;;;;;;;58.10;24.00;;;;;;;-5.41;74.37;100237.63;131965;1251;107543;-86
2023/12/05 06:58:39;;;;;;;52.30;23.00;;;;;;;-5.44;74.40;100239.84;132130;1253;108067;-87
2023/12/05 07:01:45;;;;;;;49.10;23.70;;;;;;;-5.43;74.42;100239.27;131957;1253;108192;-86
2023/12/05 07:04:51;;;;;;;52.20;23.30;;;;;;;-5.43;74.62;100237.16;132040;1251;106789;-87
2023/12/05 07:07:57;;;;;;;46.40;23.50;;;;;;;-5.40;74.64;100232.59;131915;1250;107549;-86
2023/12/05 07:11:03;;;;;;;46.60;21.30;;;;;;;-5.34;74.46;100230.78;131849;1254;105789;-87
2023/12/05 07:14:09;;;;;;;45.10;22.50;;;;;;;-5.24;74.67;100228.37;131666;1256;106156;-86
2023/12/05 07:17:15;;;;;;;52.20;22.30;;;;;;;-5.09;74.78;100226.13;131870;1251;108786;-86
2023/12/05 07:20:20;;;;;;;42.30;19.70;;;;;;;-4.94;74.85;100224.52;131817;1251;107510;-87
2023/12/05 07:23:26;;;;;;;49.80;22.30;;;;;;;-4.76;74.84;100218.33;131956;1251;107486;-86
2023/12/05 07:26:32;;;;;;;48.60;22.50;;;;;;;-4.63;74.75;100218.35;131812;1251;107543;-85
2023/12/05 07:29:38;;;;;;;46.70;22.60;;;;;;;-4.53;74.75;100212.42;131619;1251;107406;-86
2023/12/05 07:32:43;;;;;;;50.50;22.80;;;;;;;-4.47;74.79;100215.83;131606;1251;106942;-84
2023/12/05 07:35:50;;;;;;;49.50;22.20;;;;;;;-4.40;74.68;100214.00;131431;1251;107205;-88
2023/12/05 07:38:56;;;;;;;48.20;22.90;;;;;;;-4.37;74.62;100214.23;131175;1251;107938;-88
2023/12/05 07:42:02;;;;;;;49.40;22.60;;;;;;;-4.32;74.88;100214.92;131640;1253;106260;-88
2023/12/05 07:45:09;;;;;;;115.80;39.00;;;;;;;-4.31;74.64;100213.16;132082;1253;107261;-86
2023/12/05 07:48:15;;;;;;;83.00;31.70;;;;;;;-4.30;74.56;100209.66;131701;1251;107576;-86
2023/12/05 07:51:20;;;;;;;58.70;25.60;;;;;;;-4.29;74.68;100213.10;131822;1254;107767;-87
2023/12/05 07:54:26;;;;;;;54.60;26.40;;;;;;;-4.30;74.64;100212.63;131830;1251;106499;-86
2023/12/05 07:57:32;;;;;;;52.90;24.10;;;;;;;-4.31;74.71;100210.73;131951;1251;107483;-86
2023/12/05 08:00:39;;;;;;;58.10;25.50;;;;;;;-4.30;74.71;100204.45;131763;1256;107927;-86
2023/12/05 08:03:45;;;;;;;49.50;24.00;;;;;;;-4.30;74.74;100207.23;131953;1254;107704;-86
2023/12/05 08:06:51;;;;;;;46.90;23.30;;;;;;;-4.31;74.76;100206.56;131975;1251;107280;-86
2023/12/05 08:09:57;;;;;;;52.10;24.60;;;;;;;-4.27;75.07;100205.54;131783;1253;108670;-87
2023/12/05 08:13:02;;;;;;;51.20;23.20;;;;;;;-4.22;74.80;100207.75;131857;1251;108491;-87
2023/12/05 08:16:10;;;;;;;45.90;23.60;;;;;;;-4.19;75.05;100210.27;131869;1251;107453;-86
2023/12/05 08:19:15;;;;;;;50.40;23.70;;;;;;;-4.16;74.73;100207.69;132063;1253;107623;-85
2023/12/05 08:22:21;;;;;;;51.70;24.10;;;;;;;-4.10;74.98;100209.57;132074;1254;106996;-85
2023/12/05 08:25:27;;;;;;;46.60;23.30;;;;;;;-4.04;74.88;100211.73;131888;1254;108227;-85
2023/12/05 08:28:34;;;;;;;49.00;23.20;;;;;;;-4.00;74.98;100212.08;131737;1250;107248;-84
2023/12/05 08:31:39;;;;;;;47.50;22.10;;;;;;;-3.93;75.17;100214.27;131785;1251;106963;-87
2023/12/05 08:34:45;;;;;;;49.60;22.80;;;;;;;-3.85;75.24;100212.55;131788;1253;107704;-84
2023/12/05 08:37:51;;;;;;;47.20;22.10;;;;;;;-3.76;75.48;100215.29;131561;1263;106335;-86
2023/12/05 08:40:56;;;;;;;46.80;21.60;;;;;;;-3.62;75.18;100216.60;131738;1254;107479;-86
2023/12/05 08:44:02;;;;;;;40.00;19.80;;;;;;;-3.47;75.02;100222.08;131966;1251;108783;-87
2023/12/05 08:47:08;;;;;;;49.80;23.60;;;;;;;-3.37;74.94;100221.81;132273;1251;107512;-87
2023/12/05 08:50:13;;;;;;;51.30;24.60;;;;;;;-3.28;74.79;100224.08;132356;1250;106731;-87
2023/12/05 08:53:19;;;;;;;49.00;24.30;;;;;;;-3.20;74.93;100222.14;132079;1254;107675;-85
2023/12/05 08:56:24;;;;;;;56.70;28.50;;;;;;;-3.13;75.00;100217.15;131691;1251;107527;-85
2023/12/05 08:59:30;;;;;;;54.40;27.40;;;;;;;-3.08;74.79;100212.59;131590;1251;107255;-86
2023/12/05 09:02:36;;;;;;;54.40;25.60;;;;;;;-3.07;74.62;100211.84;131402;1253;107426;-85
2023/12/05 09:05:41;;;;;;;49.90;24.80;;;;;;;-3.03;74.62;100212.73;131432;1254;107433;-87
2023/12/05 09:08:47;;;;;;;47.50;23.70;;;;;;;-3.00;75.03;100211.17;131502;1251;107404;-79
2023/12/05 09:11:53;;;;;;;54.60;25.20;;;;;;;-2.96;74.98;100214.13;131778;1250;107422;-87
2023/12/05 09:14:58;;;;;;;52.10;24.40;;;;;;;-2.93;74.82;100210.73;131867;1254;107563;-87
2023/12/05 09:18:04;;;;;;;52.50;25.40;;;;;;;-2.88;74.87;100208.39;131607;1251;107610;-87
2023/12/05 09:21:10;;;;;;;51.30;24.40;;;;;;;-2.84;75.12;100206.99;131422;1254;107441;-86
2023/12/05 09:24:15;;;;;;;51.50;24.90;;;;;;;-2.77;75.08;100209.80;131446;1254;107517;-87
2023/12/05 09:27:21;;;;;;;47.80;23.70;;;;;;;-2.70;74.95;100208.79;131476;1254;107580;-85
2023/12/05 09:30:28;;;;;;;50.20;24.20;;;;;;;-2.65;74.97;100206.31;131414;1254;107510;-88
2023/12/05 09:33:33;;;;;;;51.20;24.60;;;;;;;-2.61;75.13;100200.04;131503;1253;107566;-85
2023/12/05 09:36:39;;;;;;;44.70;23.90;;;;;;;-2.56;74.96;100201.57;131405;1254;107647;-86
2023/12/05 09:39:45;;;;;;;47.40;23.50;;;;;;;-2.51;75.18;100201.83;131434;1250;107228;-85
2023/12/05 09:42:53;;;;;;;50.20;25.20;;;;;;;-2.43;74.90;100197.24;131388;1255;107442;-86
2023/12/05 09:46:01;;;;;;;50.00;25.60;;;;;;;-2.33;75.19;100199.43;131345;1254;108691;-85
2023/12/05 09:49:08;;;;;;;49.00;24.30;;;;;;;-2.27;74.86;100194.60;131621;1250;107673;-86
2023/12/05 09:52:14;;;;;;;49.00;24.10;;;;;;;-2.16;75.09;100189.20;131658;1250;107512;-85
2023/12/05 09:55:20;;;;;;;52.10;25.80;;;;;;;-2.07;74.85;100182.67;131540;1251;107063;-86
2023/12/05 09:58:27;;;;;;;51.20;24.80;;;;;;;-1.99;74.88;100178.79;131684;1251;106960;-86
2023/12/05 10:01:35;;;;;;;45.30;23.60;;;;;;;-1.91;74.60;100180.38;131576;1251;108404;-85
2023/12/05 10:04:44;;;;;;;43.60;21.60;;;;;;;-1.87;74.66;100171.63;131437;1251;106377;-85
2023/12/05 10:07:50;;;;;;;44.20;22.70;;;;;;;-1.82;74.85;100168.91;131479;1251;107601;-87
2023/12/05 10:10:58;;;;;;;47.10;24.40;;;;;;;-1.76;74.61;100166.71;131923;1250;107458;-86
2023/12/05 10:14:04;;;;;;;47.70;24.30;;;;;;;-1.73;74.29;100167.41;131668;1251;107769;-86
2023/12/05 10:17:10;;;;;;;72.00;28.90;;;;;;;-1.69;74.77;100162.84;131641;1251;107576;-87
2023/12/05 10:20:16;;;;;;;53.30;25.30;;;;;;;-1.61;74.94;100161.04;131790;1254;107274;-88
2023/12/05 10:23:22;;;;;;;49.30;22.50;;;;;;;-1.53;74.67;100159.96;131929;1254;108646;-87
2023/12/05 10:26:28;;;;;;;54.00;25.50;;;;;;;-1.54;74.21;100147.61;131754;1254;107520;-85
2023/12/05 10:29:39;;;;;;;50.40;23.40;;;;;;;-1.54;74.48;100142.21;131468;1254;108610;-86
2023/12/05 10:32:45;;;;;;;49.00;22.90;;;;;;;-1.50;74.46;100137.64;131477;1252;106570;-86
2023/12/05 10:35:51;;;;;;;69.00;27.50;;;;;;;-1.45;74.47;100130.55;131449;1254;107382;-88
2023/12/05 10:38:57;;;;;;;123.20;35.70;;;;;;;-1.42;74.43;100121.32;131474;1254;106979;-85
2023/12/05 10:42:02;;;;;;;58.80;25.30;;;;;;;-1.37;74.27;100119.20;131433;1251;107117;-86
2023/12/05 10:45:09;;;;;;;47.80;23.70;;;;;;;-1.37;74.10;100118.81;131671;1254;108137;-87
2023/12/05 10:48:17;;;;;;;43.00;22.20;;;;;;;-1.38;74.05;100117.14;131706;1254;107561;-87
2023/12/05 10:51:27;;;;;;;41.20;21.90;;;;;;;-1.45;73.85;100112.06;131755;1254;107435;-85
2023/12/05 10:54:33;;;;;;;41.40;21.30;;;;;;;-1.48;73.94;100114.31;131292;1251;106842;-86
2023/12/05 10:57:41;;;;;;;40.70;21.30;;;;;;;-1.49;74.03;100116.99;131467;1251;107713;-86
2023/12/05 11:00:49;;;;;;;36.30;20.00;;;;;;;-1.50;74.05;100115.33;131401;1251;108630;-86
2023/12/05 11:03:58;;;;;;;40.00;20.30;;;;;;;-1.46;73.88;100112.86;131717;1251;107468;-87
2023/12/05 11:07:05;;;;;;;37.60;20.50;;;;;;;-1.48;73.95;100113.48;131569;1254;106532;-86
2023/12/05 11:10:11;;;;;;;38.00;20.70;;;;;;;-1.44;73.83;100119.73;131603;1254;107600;-86
2023/12/05 11:13:17;;;;;;;36.40;19.70;;;;;;;-1.42;74.14;100114.01;131462;1250;107395;-86
2023/12/05 11:16:29;;;;;;;40.40;21.10;;;;;;;-1.35;74.08;100111.23;131600;1252;107422;-86
2023/12/05 11:19:45;;;;;;;43.80;21.60;;;;;;;-1.32;74.14;100107.89;131659;1251;107500;-86
2023/12/05 11:23:03;;;;;;;43.50;21.70;;;;;;;-1.26;73.97;100112.66;131482;1255;107552;-86
2023/12/05 11:26:23;;;;;;;41.00;20.70;;;;;;;-1.16;74.06;100107.59;131459;1257;107541;-85
2023/12/05 11:29:51;;;;;;;35.30;18.40;;;;;;;-1.02;73.77;100099.70;131552;1252;107395;-86
2023/12/05 11:33:05;;;;;;;44.20;21.40;;;;;;;-0.92;73.61;100102.13;131689;1251;107473;-87
2023/12/05 11:36:24;;;;;;;46.80;22.70;;;;;;;-0.80;73.72;100102.34;131590;1252;107527;-84
2023/12/05 11:39:31;;;;;;;40.60;21.10;;;;;;;-0.69;73.80;100099.11;131609;1254;107387;-86
2023/12/05 11:42:36;;;;;;;36.50;19.70;;;;;;;-0.65;73.51;100098.34;131527;1253;106607;-86
2023/12/05 11:45:43;;;;;;;39.30;21.10;;;;;;;-0.65;73.43;100094.36;131508;1254;107325;-87
2023/12/05 11:48:49;;;;;;;42.10;21.70;;;;;;;-0.67;73.25;100091.30;131550;1251;106857;-86
2023/12/05 11:51:55;;;;;;;38.20;21.20;;;;;;;-0.66;73.29;100091.41;131705;1251;107278;-86
2023/12/05 11:55:01;;;;;;;37.60;20.90;;;;;;;-0.66;72.85;100092.31;131642;1254;106368;-85
2023/12/05 11:58:25;;;;;;;36.90;20.60;;;;;;;-0.73;73.13;100090.77;131646;1254;107793;-87
2023/12/05 12:01:31;;;;;;;38.10;21.60;;;;;;;-0.75;73.25;100090.39;131608;1254;159834;-85
2023/12/05 12:04:36;;;;;;;39.60;20.80;;;;;;;-0.75;72.89;100084.58;131830;1253;107472;-87
2023/12/05 12:07:52;;;;;;;38.20;20.40;;;;;;;-0.77;73.23;100084.20;131687;1250;107457;-86
2023/12/05 12:10:58;;;;;;;38.00;19.70;;;;;;;-0.83;72.90;100086.42;131810;1253;106369;-87
2023/12/05 12:14:13;;;;;;;40.20;21.70;;;;;;;-0.85;73.09;100082.35;131501;1255;106715;-85
2023/12/05 12:17:19;;;;;;;59.40;25.80;;;;;;;-0.84;73.29;100090.17;131558;1251;109340;-86
2023/12/05 12:20:25;;;;;;;44.50;21.90;;;;;;;-0.85;73.04;100089.13;131561;1251;106544;-86
2023/12/05 12:23:32;;;;;;;39.40;20.60;;;;;;;-0.87;73.06;100084.36;131548;1251;107132;-85
2023/12/05 12:26:37;;;;;;;40.40;21.20;;;;;;;-0.91;73.00;100087.06;131603;1251;107690;-86
2023/12/05 12:29:57;;;;;;;37.00;20.00;;;;;;;-0.96;72.84;100086.80;131475;1253;107118;-86
2023/12/05 12:33:06;;;;;;;40.70;22.10;;;;;;;-1.03;72.94;100084.02;131427;1254;110166;-86
2023/12/05 12:36:14;;;;;;;40.40;21.60;;;;;;;-1.07;72.91;100082.67;131409;1251;106237;-86
2023/12/05 12:39:21;;;;;;;39.10;21.20;;;;;;;-1.08;72.98;100080.67;131445;1251;107222;-85
2023/12/05 12:42:27;;;;;;;41.70;21.30;;;;;;;-1.09;72.88;100078.73;131471;1254;107097;-86
2023/12/05 12:45:34;;;;;;;41.30;22.10;;;;;;;-1.08;73.08;100078.56;131525;1251;107406;-85
2023/12/05 12:48:42;;;;;;;46.60;23.70;;;;;;;-1.12;72.99;100083.29;131557;1250;107457;-85
2023/12/05 12:51:48;;;;;;;45.00;21.90;;;;;;;-1.17;72.96;100086.73;131550;1254;107839;-86
2023/12/05 12:54:53;;;;;;;41.90;20.80;;;;;;;-1.20;72.95;100084.73;131608;1250;106507;-86
2023/12/05 12:57:59;;;;;;;40.30;21.20;;;;;;;-1.21;72.96;100082.02;131588;1253;107383;-85
2023/12/05 13:01:05;;;;;;;38.10;21.00;;;;;;;-1.23;72.93;100083.36;131479;1250;107105;-86
2023/12/05 13:04:11;;;;;;;39.50;20.20;;;;;;;-1.27;72.84;100076.20;131783;1251;107655;-86
2023/12/05 13:07:25;;;;;;;37.10;20.00;;;;;;;-1.29;72.69;100077.23;131370;1253;108600;-86
2023/12/05 13:10:31;;;;;;;35.50;19.50;;;;;;;-1.35;72.50;100074.38;131426;1251;107630;-85
2023/12/05 13:13:38;;;;;;;37.70;20.10;;;;;;;-1.41;72.79;100080.13;131660;1250;107531;-85
2023/12/05 13:16:45;;;;;;;38.40;20.50;;;;;;;-1.45;72.80;100079.61;131601;1254;105462;-85
2023/12/05 13:19:50;;;;;;;40.10;20.90;;;;;;;-1.48;72.94;100076.84;131556;1251;107158;-86
2023/12/05 13:22:56;;;;;;;39.70;21.60;;;;;;;-1.53;72.91;100073.99;131542;1250;107531;-85
2023/12/05 13:26:03;;;;;;;40.50;21.60;;;;;;;-1.58;72.73;100070.90;131534;1273;107687;-85
2023/12/05 13:29:08;;;;;;;40.90;22.30;;;;;;;-1.62;72.91;100074.94;131447;1250;107268;-85
2023/12/05 13:32:14;;;;;;;45.00;22.90;;;;;;;-1.68;72.88;100084.64;131508;1251;107565;-86
2023/12/05 13:35:20;;;;;;;46.40;23.50;;;;;;;-1.74;72.66;100084.63;131667;1254;107009;-85
2023/12/05 13:38:26;;;;;;;51.30;25.60;;;;;;;-1.80;73.08;100080.25;131567;1256;108691;-85
2023/12/05 13:41:32;;;;;;;47.50;24.70;;;;;;;-1.87;72.97;100083.88;131464;1252;107417;-85
2023/12/05 13:44:42;;;;;;;53.00;26.30;;;;;;;-1.91;72.77;100082.02;131415;1254;106370;-86
2023/12/05 13:47:48;;;;;;;63.70;29.80;;;;;;;-1.97;72.82;100088.58;131489;1254;108243;-86
2023/12/05 13:50:56;;;;;;;54.80;27.20;;;;;;;-2.03;72.82;100087.12;131539;1255;107341;-89